Time;durP1;ratioP1;P1;durP2;ratioP2;P2;SDS_P1;SDS_P2;PMS_P1;PMS_P2;Temp;Humidity;BMP_temperature;BMP_pressure;BME280_temperature;BME280_humidity;BME280_pressure;Samples;Min_cycle;Max_cycle;Signal;HPM_P1;HPM_P2
2023/07/06 00:01:23;;;;;;;0.35;0.35;;;12.20;99.90;;;;;;5092639;28;20119;-60
2023/07/06 00:03:50;;;;;;;1.88;1.73;;;12.10;99.90;;;;;;5093234;28;20056;-61
2023/07/06 00:06:16;;;;;;;0.43;0.43;;;11.80;99.90;;;;;;5093251;28;20052;-60
2023/07/06 00:08:42;;;;;;;0.40;0.40;;;11.90;99.90;;;;;;5092948;28;20079;-60
2023/07/06 00:11:09;;;;;;;0.68;0.68;;;11.80;99.90;;;;;;5092803;28;20140;-60
2023/07/06 00:13:36;;;;;;;0.32;0.32;;;11.80;99.90;;;;;;5091652;28;20060;-61
2023/07/06 00:16:02;;;;;;;0.32;0.32;;;11.30;99.90;;;;;;5092588;28;20123;-60
2023/07/06 00:18:29;;;;;;;0.70;0.70;;;11.50;99.90;;;;;;5092781;28;20430;-62
2023/07/06 00:20:55;;;;;;;0.40;0.40;;;11.40;99.90;;;;;;5092579;28;20052;-60
2023/07/06 00:23:22;;;;;;;0.43;0.43;;;11.90;99.90;;;;;;5092409;28;20052;-62
2023/07/06 00:25:48;;;;;;;1.00;0.73;;;11.90;99.90;;;;;;5091564;28;20062;-61
2023/07/06 00:28:16;;;;;;;0.47;0.47;;;11.90;99.90;;;;;;5092355;28;20044;-60
2023/07/06 00:33:15;;;;;;;0.28;0.28;;;11.40;99.90;;;;;;5092330;28;20090;-60
2023/07/06 00:35:41;;;;;;;0.35;0.35;;;11.60;99.90;;;;;;5092245;28;20561;-60
2023/07/06 00:38:14;;;;;;;0.60;0.60;;;11.70;99.90;;;;;;5091198;28;20131;-60
2023/07/06 00:40:48;;;;;;;0.32;0.32;;;11.40;99.90;;;;;;5092072;28;20130;-62
2023/07/06 00:43:20;;;;;;;0.40;0.40;;;11.50;99.90;;;;;;5092049;28;20438;-63
2023/07/06 00:45:50;;;;;;;0.65;0.65;;;11.50;99.90;;;;;;5091041;28;20044;-62
2023/07/06 00:48:22;;;;;;;1.20;0.70;;;11.50;99.90;;;;;;5091949;28;20392;-63
2023/07/06 00:50:58;;;;;;;0.70;0.70;;;11.40;99.90;;;;;;5092009;28;20051;-62
2023/07/06 00:53:27;;;;;;;1.35;0.93;;;11.90;99.90;;;;;;5091480;28;20058;-65
2023/07/06 00:55:57;;;;;;;0.75;0.75;;;11.60;99.90;;;;;;5090664;28;21063;-62
2023/07/06 00:58:27;;;;;;;0.73;0.73;;;11.20;99.90;;;;;;5091766;28;20500;-62
2023/07/06 01:00:55;;;;;;;0.50;0.50;;;11.30;99.90;;;;;;5091941;28;20048;-62
2023/07/06 01:03:22;;;;;;;0.93;0.82;;;11.50;99.90;;;;;;5091475;28;20056;-62
2023/07/06 01:05:51;;;;;;;0.85;0.85;;;11.50;99.90;;;;;;5091675;28;20054;-62
2023/07/06 01:08:20;;;;;;;0.50;0.50;;;11.10;99.90;;;;;;5091863;28;20100;-64
2023/07/06 01:10:48;;;;;;;0.70;0.50;;;11.60;99.90;;;;;;5091735;28;20055;-62
2023/07/06 01:13:14;;;;;;;1.33;1.23;;;11.20;99.90;;;;;;5091660;28;20051;-64
2023/07/06 01:15:58;;;;;;;1.02;1.02;;;11.20;99.90;;;;;;5090390;28;20047;-62
2023/07/06 01:18:40;;;;;;;0.50;0.50;;;11.30;99.90;;;;;;5091521;28;20048;-64
2023/07/06 01:21:17;;;;;;;0.57;0.57;;;11.20;99.90;;;;;;5091657;28;20147;-62
2023/07/06 01:24:05;;;;;;;1.02;0.95;;;11.40;99.90;;;;;;5091675;28;20131;-62
2023/07/06 01:26:39;;;;;;;1.10;1.00;;;11.20;99.90;;;;;;5091356;28;20051;-62
2023/07/06 01:29:48;;;;;;;0.68;0.68;;;11.10;99.90;;;;;;5091241;28;20442;-62
2023/07/06 01:32:23;;;;;;;2.30;0.90;;;11.20;99.90;;;;;;5091451;28;20381;-62
2023/07/06 01:35:01;;;;;;;0.60;0.60;;;10.70;99.90;;;;;;5091279;28;20119;-63
2023/07/06 01:37:33;;;;;;;0.50;0.50;;;11.20;99.90;;;;;;5090798;28;20105;-62
2023/07/06 01:40:01;;;;;;;0.38;0.38;;;11.20;99.90;;;;;;5091314;28;20103;-63
2023/07/06 01:42:30;;;;;;;0.73;0.68;;;11.10;99.90;;;;;;5090919;28;20127;-61
2023/07/06 01:45:09;;;;;;;0.65;0.65;;;11.10;99.90;;;;;;5091096;28;20059;-63
2023/07/06 01:47:42;;;;;;;0.57;0.57;;;11.00;99.90;;;;;;5091039;28;20051;-62
2023/07/06 01:50:12;;;;;;;0.60;0.60;;;10.70;99.90;;;;;;5091175;28;20044;-62
2023/07/06 01:52:49;;;;;;;0.20;0.20;;;11.10;99.90;;;;;;5091147;28;20118;-62
2023/07/06 01:55:20;;;;;;;0.60;0.52;;;10.90;99.90;;;;;;5091104;28;20439;-62
2023/07/06 01:58:08;;;;;;;0.30;0.30;;;11.20;99.90;;;;;;5091144;28;20122;-63
2023/07/06 02:00:38;;;;;;;0.65;0.65;;;11.00;99.90;;;;;;5091439;28;20043;-62
2023/07/06 02:03:08;;;;;;;1.38;0.90;;;10.90;99.90;;;;;;5090629;28;20400;-62
2023/07/06 02:05:36;;;;;;;0.80;0.80;;;11.10;99.90;;;;;;5090998;28;20055;-62
2023/07/06 02:08:06;;;;;;;1.05;1.05;;;10.70;99.90;;;;;;5090883;28;20048;-62
2023/07/06 02:10:32;;;;;;;0.30;0.30;;;10.90;99.90;;;;;;5090765;28;20431;-62
2023/07/06 02:12:57;;;;;;;0.57;0.55;;;10.70;99.90;;;;;;5090697;28;20044;-63
2023/07/06 02:15:24;;;;;;;0.90;0.90;;;10.80;99.90;;;;;;5089597;28;20055;-62
2023/07/06 02:17:50;;;;;;;1.00;1.00;;;11.20;99.90;;;;;;5090882;28;20048;-63
2023/07/06 02:20:19;;;;;;;0.30;0.30;;;10.80;99.90;;;;;;5090763;28;20465;-62
2023/07/06 02:22:45;;;;;;;0.40;0.40;;;11.10;99.90;;;;;;5090633;28;20044;-62
2023/07/06 02:25:11;;;;;;;0.63;0.63;;;11.30;99.90;;;;;;5090618;28;20461;-63
2023/07/06 02:27:37;;;;;;;0.93;0.77;;;10.90;99.90;;;;;;5089134;28;20040;-62
2023/07/06 02:30:05;;;;;;;0.40;0.40;;;11.10;99.90;;;;;;5090826;28;20048;-63
2023/07/06 02:32:32;;;;;;;0.73;0.65;;;11.00;99.90;;;;;;5090645;28;20044;-62
2023/07/06 02:34:58;;;;;;;0.77;0.77;;;11.00;99.90;;;;;;5090619;28;20380;-62
2023/07/06 02:37:24;;;;;;;0.77;0.77;;;9.50;99.90;;;;;;5090551;28;20108;-63
2023/07/06 02:39:50;;;;;;;;;;;10.60;99.90;;;;;;5090900;28;20139;-62
2023/07/06 02:42:17;;;;;;;1.08;0.75;;;10.90;99.90;;;;;;5090599;28;19935;-62
2023/07/06 02:44:43;;;;;;;0.80;0.80;;;11.30;99.90;;;;;;5090558;28;20500;-62
2023/07/06 02:47:09;;;;;;;;;;;11.30;99.90;;;;;;5091019;28;20040;-62
2023/07/06 02:49:35;;;;;;;0.50;0.50;;;11.30;99.90;;;;;;5093122;28;19924;-63
2023/07/06 02:52:01;;;;;;;0.70;0.43;;;10.30;99.90;;;;;;5094316;28;20471;-62
2023/07/06 02:54:27;;;;;;;0.98;0.90;;;11.00;99.90;;;;;;5093081;28;20036;-62
2023/07/06 02:56:53;;;;;;;0.50;0.50;;;11.10;99.90;;;;;;5094403;28;20048;-63
2023/07/06 02:59:19;;;;;;;0.68;0.68;;;11.50;99.90;;;;;;5094323;28;20040;-62
2023/07/06 03:01:45;;;;;;;0.60;0.60;;;11.00;99.90;;;;;;5094173;28;20480;-64
2023/07/06 03:04:11;;;;;;;0.70;0.57;;;11.10;99.90;;;;;;5094101;28;20143;-62
2023/07/06 03:06:38;;;;;;;1.27;0.60;;;11.40;99.90;;;;;;5094153;28;20043;-61
2023/07/06 03:09:04;;;;;;;0.63;0.63;;;11.00;99.90;;;;;;5094220;28;20044;-62
2023/07/06 03:11:31;;;;;;;0.63;0.63;;;11.40;99.90;;;;;;5094173;28;20118;-65
2023/07/06 03:13:59;;;;;;;0.60;0.60;;;11.20;99.90;;;;;;5094034;28;20052;-61
2023/07/06 03:16:25;;;;;;;0.40;0.40;;;10.90;99.90;;;;;;5093936;28;20086;-62
2023/07/06 03:18:51;;;;;;;;;;;11.20;99.90;;;;;;5094293;28;20127;-62
2023/07/06 03:21:16;;;;;;;0.32;0.32;;;10.80;99.90;;;;;;5093694;28;20411;-62
2023/07/06 03:23:42;;;;;;;0.50;0.50;;;11.50;99.90;;;;;;5093546;28;20040;-62
2023/07/06 03:26:09;;;;;;;0.65;0.65;;;11.40;99.90;;;;;;5093856;28;20081;-62
2023/07/06 03:28:35;;;;;;;0.43;0.43;;;11.10;99.90;;;;;;5093674;28;20056;-63
2023/07/06 03:31:01;;;;;;;0.20;0.20;;;11.20;99.90;;;;;;5093582;28;20073;-63
2023/07/06 03:33:27;;;;;;;0.45;0.40;;;10.90;99.90;;;;;;5093540;28;20040;-61
2023/07/06 03:35:54;;;;;;;0.98;0.98;;;11.20;99.90;;;;;;5093475;28;20048;-62
2023/07/06 03:38:25;;;;;;;0.30;0.30;;;10.80;99.90;;;;;;5093392;28;20138;-62
2023/07/06 03:40:51;;;;;;;0.60;0.60;;;10.70;99.90;;;;;;5092349;28;20043;-63
2023/07/06 03:43:17;;;;;;;;;;;10.40;99.90;;;;;;5093777;28;20063;-62
2023/07/06 03:45:46;;;;;;;0.63;0.63;;;11.10;99.90;;;;;;5093385;28;19924;-62
2023/07/06 03:48:12;;;;;;;0.73;0.70;;;10.90;99.90;;;;;;5093205;28;20129;-63
2023/07/06 03:50:38;;;;;;;;;;;11.30;99.90;;;;;;5093617;28;20056;-64
2023/07/06 03:53:04;;;;;;;0.60;0.60;;;10.90;99.90;;;;;;5092135;28;20390;-62
2023/07/06 03:55:30;;;;;;;0.28;0.28;;;10.60;99.90;;;;;;5093472;28;20055;-62
2023/07/06 03:58:00;;;;;;;0.25;0.25;;;11.00;99.90;;;;;;5093117;28;20442;-64
2023/07/06 04:00:28;;;;;;;0.95;0.90;;;10.70;99.90;;;;;;5092915;28;20062;-62
2023/07/06 04:02:56;;;;;;;0.40;0.40;;;11.00;99.90;;;;;;5092952;28;20056;-62
2023/07/06 04:05:31;;;;;;;0.38;0.38;;;11.10;99.90;;;;;;5092781;28;20054;-62
2023/07/06 04:07:58;;;;;;;1.00;1.00;;;11.20;99.90;;;;;;5093072;28;20098;-62
2023/07/06 04:10:24;;;;;;;0.50;0.50;;;11.00;99.90;;;;;;5092869;28;20047;-62
2023/07/06 04:12:50;;;;;;;0.30;0.30;;;11.10;99.90;;;;;;5092782;28;20094;-62
2023/07/06 04:15:17;;;;;;;0.77;0.77;;;11.10;99.90;;;;;;5074692;28;20084;-61
2023/07/06 04:17:44;;;;;;;0.40;0.40;;;11.10;99.90;;;;;;5092563;28;20081;-62
2023/07/06 04:20:18;;;;;;;0.60;0.60;;;11.20;99.90;;;;;;5092538;28;20071;-62
2023/07/06 04:22:54;;;;;;;0.30;0.30;;;11.70;99.90;;;;;;5092686;28;20074;-61
2023/07/06 04:25:22;;;;;;;0.75;0.75;;;11.30;99.90;;;;;;5092640;28;20104;-63
2023/07/06 04:27:48;;;;;;;0.57;0.57;;;11.30;99.90;;;;;;5091392;28;20678;-62
2023/07/06 04:30:16;;;;;;;0.63;0.57;;;11.70;99.90;;;;;;5092283;28;20518;-62
2023/07/06 04:32:48;;;;;;;0.80;0.60;;;11.10;99.90;;;;;;5092224;28;20040;-61
2023/07/06 04:35:16;;;;;;;0.40;0.40;;;11.40;99.90;;;;;;5092457;28;20059;-62
2023/07/06 04:37:43;;;;;;;0.85;0.70;;;12.10;99.90;;;;;;5092368;28;20079;-62
2023/07/06 04:40:13;;;;;;;1.20;0.93;;;11.90;99.90;;;;;;5092263;28;20085;-62
2023/07/06 04:42:40;;;;;;;0.28;0.28;;;12.20;99.90;;;;;;5092022;28;20044;-63
2023/07/06 04:45:12;;;;;;;0.32;0.32;;;11.90;99.90;;;;;;5092052;28;20063;-61
2023/07/06 04:47:41;;;;;;;1.08;0.90;;;12.30;99.90;;;;;;5092369;28;20430;-62
2023/07/06 04:50:17;;;;;;;0.73;0.73;;;12.00;99.90;;;;;;5092180;28;20056;-62
2023/07/06 04:52:46;;;;;;;0.95;0.90;;;11.60;99.90;;;;;;5090815;28;20044;-62
2023/07/06 04:55:12;;;;;;;0.65;0.65;;;12.00;99.90;;;;;;5091841;28;20055;-64
2023/07/06 04:57:39;;;;;;;0.63;0.63;;;12.00;99.90;;;;;;5091883;28;20048;-61
2023/07/06 05:00:16;;;;;;;0.73;0.73;;;11.90;99.90;;;;;;5092200;28;20148;-61
2023/07/06 05:02:42;;;;;;;0.70;0.70;;;12.10;99.90;;;;;;5092005;28;20059;-62
2023/07/06 05:05:11;;;;;;;0.80;0.80;;;12.30;99.90;;;;;;5091783;28;20048;-61
2023/07/06 05:07:38;;;;;;;0.82;0.80;;;12.30;99.90;;;;;;5091673;28;20051;-64
2023/07/06 05:10:05;;;;;;;0.45;0.45;;;12.40;99.90;;;;;;5091523;28;20054;-61
2023/07/06 05:12:30;;;;;;;0.65;0.65;;;12.50;99.90;;;;;;5090210;28;20054;-62
2023/07/06 05:14:56;;;;;;;0.30;0.30;;;12.30;99.90;;;;;;5091746;28;20839;-61
2023/07/06 05:17:22;;;;;;;0.47;0.47;;;12.90;99.90;;;;;;5091684;28;20110;-63
2023/07/06 05:19:47;;;;;;;4.60;1.05;;;13.20;99.90;;;;;;5091588;28;20403;-62
2023/07/06 05:22:18;;;;;;;0.55;0.55;;;12.80;99.90;;;;;;5089956;28;20047;-62
2023/07/06 05:24:44;;;;;;;0.85;0.82;;;13.40;99.90;;;;;;5091356;28;20136;-62
2023/07/06 05:27:10;;;;;;;0.75;0.75;;;13.50;99.90;;;;;;5091467;28;20046;-62
2023/07/06 05:29:35;;;;;;;0.60;0.60;;;13.40;99.90;;;;;;5091457;28;20052;-61
2023/07/06 05:32:01;;;;;;;2.63;1.48;;;13.40;99.90;;;;;;5090043;28;20040;-61
2023/07/06 05:34:27;;;;;;;1.48;1.15;;;13.70;99.90;;;;;;5091275;28;20130;-62
2023/07/06 05:36:53;;;;;;;0.98;0.98;;;13.90;99.90;;;;;;5091215;28;20486;-62
2023/07/06 05:39:18;;;;;;;0.60;0.60;;;14.50;99.90;;;;;;5091162;28;20113;-62
2023/07/06 05:41:44;;;;;;;0.93;0.90;;;14.50;99.90;;;;;;5091294;28;20044;-62
2023/07/06 05:44:10;;;;;;;0.47;0.47;;;14.60;99.90;;;;;;5091332;28;20131;-61
2023/07/06 05:46:35;;;;;;;0.40;0.40;;;13.90;99.90;;;;;;5091247;28;20055;-61
2023/07/06 05:49:01;;;;;;;1.33;1.25;;;14.50;99.90;;;;;;5090221;28;20036;-61
2023/07/06 05:51:27;;;;;;;1.13;1.10;;;14.50;99.90;;;;;;5073256;28;20088;-61
2023/07/06 05:53:52;;;;;;;0.73;0.68;;;14.70;99.90;;;;;;5090906;28;20052;-63
2023/07/06 05:56:19;;;;;;;0.70;0.70;;;14.40;99.90;;;;;;5091258;28;20507;-62
2023/07/06 05:58:44;;;;;;;0.85;0.63;;;14.70;99.90;;;;;;5091088;28;20052;-61
2023/07/06 06:01:11;;;;;;;2.35;1.48;;;14.40;99.90;;;;;;5091039;28;20100;-63
2023/07/06 06:03:37;;;;;;;2.58;1.00;;;14.50;99.90;;;;;;5090594;28;20052;-61
2023/07/06 06:06:03;;;;;;;0.40;0.40;;;14.80;99.90;;;;;;5090809;28;20488;-62
2023/07/06 06:08:29;;;;;;;0.88;0.50;;;15.20;99.90;;;;;;5090733;28;20101;-61
2023/07/06 06:10:55;;;;;;;;;;;14.90;99.90;;;;;;5091424;28;20046;-61
2023/07/06 06:13:22;;;;;;;1.38;1.05;;;15.30;99.90;;;;;;5089606;28;19931;-62
2023/07/06 06:15:48;;;;;;;1.88;1.70;;;14.90;99.90;;;;;;5090615;28;20781;-61
2023/07/06 06:18:13;;;;;;;;;;;15.60;99.90;;;;;;5091194;28;20109;-62
2023/07/06 06:20:42;;;;;;;1.00;0.85;;;15.40;99.90;;;;;;5090743;28;19927;-62
2023/07/06 06:23:10;;;;;;;0.80;0.80;;;15.60;99.90;;;;;;5090642;28;20377;-62
2023/07/06 06:25:38;;;;;;;0.93;0.82;;;15.50;99.90;;;;;;5095022;28;20048;-62
2023/07/06 06:28:05;;;;;;;0.50;0.50;;;15.40;99.90;;;;;;5093582;28;20122;-61
2023/07/06 06:30:31;;;;;;;2.83;0.65;;;16.20;99.90;;;;;;5094853;28;20127;-61
2023/07/06 06:32:57;;;;;;;1.42;1.10;;;15.90;99.90;;;;;;5094801;28;20122;-61
2023/07/06 06:35:27;;;;;;;15.52;1.35;;;16.10;99.90;;;;;;5094651;28;20446;-61
2023/07/06 06:37:54;;;;;;;0.45;0.45;;;15.60;99.90;;;;;;5094808;28;20134;-61
2023/07/06 06:40:21;;;;;;;1.50;1.13;;;16.20;99.90;;;;;;5094727;28;20799;-61
2023/07/06 06:42:48;;;;;;;0.55;0.52;;;16.30;99.90;;;;;;5094554;28;20050;-61
2023/07/06 06:45:15;;;;;;;0.63;0.55;;;16.30;99.90;;;;;;5094553;28;20422;-62
2023/07/06 06:47:41;;;;;;;1.67;1.33;;;16.30;99.90;;;;;;5094544;28;20109;-61
2023/07/06 06:50:09;;;;;;;;;;;16.10;99.90;;;;;;5095062;28;20422;-62
2023/07/06 06:52:35;;;;;;;0.82;0.82;;;16.30;99.90;;;;;;5094753;28;19924;-61
2023/07/06 06:55:01;;;;;;;0.63;0.50;;;16.50;99.90;;;;;;5094471;28;20465;-62
2023/07/06 06:57:29;;;;;;;0.95;0.75;;;17.10;99.90;;;;;;5094363;28;20071;-61
2023/07/06 06:59:55;;;;;;;0.55;0.55;;;16.90;99.90;;;;;;5090374;28;20090;-61
2023/07/06 07:02:22;;;;;;;;;;;17.00;99.90;;;;;;5094276;28;20059;-62
2023/07/06 07:04:49;;;;;;;3.67;0.93;;;17.00;99.90;;;;;;5092548;28;20102;-62
2023/07/06 07:07:16;;;;;;;1.73;1.05;;;17.30;99.90;;;;;;5088663;28;20308;-62
2023/07/06 07:09:42;;;;;;;0.50;0.50;;;17.30;99.90;;;;;;5093394;28;20044;-68
2023/07/06 07:12:07;;;;;;;;;;;17.30;99.90;;;;;;5086425;28;20048;-63
2023/07/06 07:14:34;;;;;;;4.45;1.27;;;17.30;99.90;;;;;;5092902;28;20340;-62
2023/07/06 07:16:59;;;;;;;0.30;0.30;;;17.70;99.90;;;;;;5093592;28;20044;-62
2023/07/06 07:19:28;;;;;;;;;;;17.60;99.90;;;;;;5093588;28;20055;-62
2023/07/06 07:21:55;;;;;;;0.30;0.30;;;17.40;99.90;;;;;;5092819;28;19930;-62
2023/07/06 07:24:20;;;;;;;0.28;0.28;;;17.50;99.90;;;;;;5092154;28;20048;-61
2023/07/06 07:26:49;;;;;;;;;;;17.20;99.90;;;;;;5092897;28;20564;-62
2023/07/06 07:29:15;;;;;;;0.30;0.30;;;17.40;99.90;;;;;;5092773;28;19920;-61
2023/07/06 07:31:41;;;;;;;;;;;17.60;99.90;;;;;;5093846;28;20518;-64
2023/07/06 07:34:07;;;;;;;0.32;0.32;;;17.60;99.90;;;;;;5092551;28;19959;-62
2023/07/06 07:36:33;;;;;;;;;;;17.50;99.90;;;;;;5091816;28;20132;-61
2023/07/06 07:38:59;;;;;;;1.13;1.00;;;17.10;99.90;;;;;;5093165;28;19997;-64
2023/07/06 07:41:25;;;;;;;0.22;0.22;;;17.60;99.90;;;;;;5093066;28;20466;-62
2023/07/06 07:43:51;;;;;;;;;;;17.70;99.90;;;;;;5093212;28;20218;-61
2023/07/06 07:46:19;;;;;;;0.30;0.30;;;17.40;99.90;;;;;;5093220;28;19923;-63
2023/07/06 07:48:47;;;;;;;0.22;0.22;;;17.60;99.90;;;;;;5092766;28;20040;-61
2023/07/06 07:51:16;;;;;;;0.40;0.40;;;17.40;99.90;;;;;;5092081;28;20467;-62
2023/07/06 07:53:44;;;;;;;0.50;0.40;;;17.30;99.90;;;;;;5092910;28;20036;-61
2023/07/06 07:56:12;;;;;;;0.40;0.40;;;18.00;99.90;;;;;;5093072;28;20058;-63
2023/07/06 07:58:40;;;;;;;0.77;0.35;;;18.40;99.90;;;;;;5092186;28;20395;-62
2023/07/06 08:01:09;;;;;;;1.17;1.10;;;18.30;99.90;;;;;;5092547;28;20095;-62
2023/07/06 08:03:36;;;;;;;0.32;0.32;;;18.80;99.90;;;;;;5092165;28;21501;-62
2023/07/06 08:06:05;;;;;;;0.20;0.20;;;19.00;99.90;;;;;;5091868;28;20052;-61
2023/07/06 08:08:33;;;;;;;0.10;0.10;;;19.30;99.90;;;;;;5092503;28;20062;-61
2023/07/06 08:11:09;;;;;;;1.20;0.65;;;19.00;99.90;;;;;;5092454;28;20097;-62
2023/07/06 08:13:36;;;;;;;1.35;0.40;;;19.00;99.90;;;;;;5091807;28;20048;-62
2023/07/06 08:16:03;;;;;;;0.28;0.28;;;19.00;99.90;;;;;;5092657;28;20049;-62
2023/07/06 08:18:30;;;;;;;0.28;0.28;;;19.00;99.90;;;;;;5092367;28;20109;-63
2023/07/06 08:20:57;;;;;;;0.25;0.25;;;18.70;99.90;;;;;;5091713;28;20058;-63
2023/07/06 08:23:27;;;;;;;0.28;0.20;;;18.40;99.90;;;;;;5090800;28;20048;-62
2023/07/06 08:25:53;;;;;;;0.30;0.30;;;18.30;99.90;;;;;;5092239;28;20040;-62
2023/07/06 08:28:25;;;;;;;0.20;0.20;;;18.40;99.90;;;;;;5091409;28;20435;-64
2023/07/06 08:30:54;;;;;;;0.43;0.43;;;17.70;99.90;;;;;;5092367;28;20504;-62
2023/07/06 08:33:23;;;;;;;0.10;0.10;;;17.80;99.90;;;;;;5089056;28;20422;-64
2023/07/06 08:35:49;;;;;;;0.15;0.15;;;17.80;99.90;;;;;;5089329;28;20048;-64
2023/07/06 08:38:16;;;;;;;0.10;0.10;;;17.80;99.90;;;;;;5091764;28;20079;-66
2023/07/06 08:40:43;;;;;;;0.15;0.15;;;18.00;99.90;;;;;;5091702;28;20085;-64
2023/07/06 08:43:19;;;;;;;0.20;0.20;;;18.40;99.90;;;;;;5091267;28;20047;-67
2023/07/06 08:45:48;;;;;;;0.20;0.20;;;18.50;99.90;;;;;;5091283;28;20070;-65
2023/07/06 08:48:18;;;;;;;0.15;0.15;;;18.20;99.90;;;;;;5090956;28;20161;-64
2023/07/06 08:50:51;;;;;;;0.47;0.47;;;18.50;99.90;;;;;;5090752;28;20051;-64
2023/07/06 08:53:20;;;;;;;1.08;1.08;;;18.80;99.90;;;;;;5091133;28;20054;-62
2023/07/06 08:55:46;;;;;;;0.20;0.20;;;19.00;99.90;;;;;;5091558;28;20056;-65
2023/07/06 08:58:22;;;;;;;0.20;0.20;;;21.20;99.90;;;;;;5090878;28;20051;-63
2023/07/06 09:00:48;;;;;;;0.50;0.50;;;18.80;99.90;;;;;;5091503;28;20450;-63
2023/07/06 09:03:15;;;;;;;0.10;0.10;;;18.60;99.90;;;;;;5090352;28;20044;-63
2023/07/06 09:05:46;;;;;;;0.30;0.30;;;18.50;99.90;;;;;;5088140;28;20040;-65
2023/07/06 09:08:17;;;;;;;0.30;0.30;;;18.70;99.90;;;;;;5091508;28;20040;-63
2023/07/06 09:10:42;;;;;;;0.52;0.40;;;18.60;99.90;;;;;;5091620;28;20163;-63
2023/07/06 09:13:23;;;;;;;0.70;0.70;;;18.50;99.90;;;;;;5090636;28;20085;-63
2023/07/06 09:16:00;;;;;;;0.28;0.28;;;18.90;99.90;;;;;;5090230;28;20048;-63
2023/07/06 09:18:26;;;;;;;0.20;0.20;;;18.90;99.90;;;;;;5090516;28;20052;-63
2023/07/06 09:20:53;;;;;;;0.40;0.40;;;19.00;99.90;;;;;;5091142;28;20048;-64
2023/07/06 09:23:19;;;;;;;0.20;0.20;;;18.90;99.90;;;;;;5091096;28;20072;-62
2023/07/06 09:25:47;;;;;;;0.30;0.30;;;19.40;99.90;;;;;;5090686;28;20083;-64
2023/07/06 09:28:18;;;;;;;0.43;0.43;;;19.10;99.90;;;;;;5090881;28;20083;-63
2023/07/06 09:30:45;;;;;;;0.20;0.20;;;19.30;99.90;;;;;;5091181;28;20089;-64
2023/07/06 09:33:19;;;;;;;0.40;0.40;;;19.70;99.90;;;;;;5089146;28;20547;-63
2023/07/06 09:35:48;;;;;;;0.10;0.10;;;19.90;99.90;;;;;;5090851;28;20049;-63
2023/07/06 09:38:15;;;;;;;0.13;0.13;;;20.00;99.90;;;;;;5091189;28;20044;-63
2023/07/06 09:40:43;;;;;;;0.30;0.30;;;19.50;99.90;;;;;;5090797;28;20461;-64
2023/07/06 09:43:27;;;;;;;0.10;0.10;;;19.70;99.90;;;;;;5090647;28;20184;-65
2023/07/06 09:45:55;;;;;;;0.10;0.10;;;19.30;99.90;;;;;;5091163;28;20105;-63
2023/07/06 09:48:37;;;;;;;0.82;0.73;;;19.40;99.90;;;;;;5090423;28;20051;-63
2023/07/06 09:51:14;;;;;;;1.17;0.38;;;20.00;99.90;;;;;;5090236;28;20048;-69
2023/07/06 09:53:48;;;;;;;0.13;0.13;;;19.50;99.90;;;;;;5102468;28;20048;-63
2023/07/06 09:56:15;;;;;;;0.10;0.10;;;19.60;99.90;;;;;;5088847;28;20056;-63
2023/07/06 09:58:42;;;;;;;0.47;0.47;;;19.70;99.90;;;;;;5090341;28;20048;-65
2023/07/06 10:01:17;;;;;;;0.15;0.15;;;20.20;99.90;;;;;;5090016;28;20044;-63
2023/07/06 10:04:16;;;;;;;0.40;0.40;;;20.00;99.90;;;;;;5089832;28;20052;-63
2023/07/06 10:06:59;;;;;;;0.10;0.10;;;20.20;99.90;;;;;;5090045;28;20056;-63
2023/07/06 10:09:31;;;;;;;0.50;0.50;;;19.90;99.90;;;;;;5090106;28;20168;-63
2023/07/06 10:12:06;;;;;;;0.10;0.10;;;20.00;99.90;;;;;;5089945;28;20052;-63
2023/07/06 10:14:40;;;;;;;0.75;0.75;;;19.40;99.90;;;;;;5090078;28;20048;-63
2023/07/06 10:17:30;;;;;;;0.28;0.28;;;19.30;99.90;;;;;;5090130;28;20141;-66
2023/07/06 10:20:08;;;;;;;0.57;0.57;;;19.40;99.90;;;;;;5089769;28;20055;-64
2023/07/06 10:23:05;;;;;;;0.52;0.47;;;19.80;99.90;;;;;;5089984;28;20051;-63
2023/07/06 10:25:46;;;;;;;0.20;0.20;;;19.80;99.90;;;;;;5087191;28;20063;-63
2023/07/06 10:28:28;;;;;;;0.20;0.20;;;19.80;99.90;;;;;;5090132;28;20044;-63
2023/07/06 10:30:57;;;;;;;0.63;0.30;;;19.50;99.90;;;;;;5090341;28;20047;-63
2023/07/06 10:33:22;;;;;;;0.20;0.20;;;19.70;99.90;;;;;;5089478;28;20079;-63
2023/07/06 10:35:50;;;;;;;0.35;0.35;;;19.30;99.90;;;;;;5087760;28;20522;-67
2023/07/06 10:38:21;;;;;;;0.15;0.15;;;19.10;99.90;;;;;;5087804;28;20097;-64
2023/07/06 10:41:13;;;;;;;0.10;0.10;;;19.40;99.90;;;;;;5090294;28;20102;-66
2023/07/06 10:43:41;;;;;;;0.10;0.10;;;20.00;99.90;;;;;;5088925;28;20582;-63
2023/07/06 10:46:27;;;;;;;0.10;0.10;;;21.00;99.90;;;;;;5089853;28;20046;-63
2023/07/06 10:48:54;;;;;;;0.30;0.30;;;20.90;99.90;;;;;;5090232;28;20048;-63
2023/07/06 10:51:27;;;;;;;1.08;0.55;;;20.80;99.90;;;;;;5089856;28;20119;-62
2023/07/06 10:54:19;;;;;;;0.10;0.10;;;20.60;99.90;;;;;;5089987;28;20040;-63
2023/07/06 10:57:03;;;;;;;0.20;0.20;;;20.40;99.90;;;;;;5090166;28;20051;-63
2023/07/06 10:59:37;;;;;;;0.10;0.05;;;20.60;99.90;;;;;;5090417;28;20039;-62
2023/07/06 11:02:22;;;;;;;0.10;0.10;;;20.90;99.90;;;;;;5089829;28;20047;-63
2023/07/06 11:05:09;;;;;;;0.20;0.13;;;21.40;99.90;;;;;;5089691;28;20148;-63
2023/07/06 11:07:50;;;;;;;0.43;0.43;;;21.20;99.90;;;;;;5089725;28;20052;-62
2023/07/06 11:10:22;;;;;;;0.10;0.10;;;21.00;99.90;;;;;;5092009;28;20101;-63
2023/07/06 11:13:04;;;;;;;0.13;0.13;;;20.70;99.90;;;;;;5092259;28;20047;-62
2023/07/06 11:15:53;;;;;;;0.13;0.13;;;21.40;99.90;;;;;;5093457;28;20492;-63
2023/07/06 11:18:21;;;;;;;0.30;0.30;;;21.60;99.90;;;;;;5089576;28;20059;-63
2023/07/06 11:21:17;;;;;;;0.20;0.20;;;21.50;99.90;;;;;;5092981;28;20765;-63
2023/07/06 11:23:45;;;;;;;0.30;0.30;;;22.00;99.90;;;;;;5093765;28;20098;-62
2023/07/06 11:26:45;;;;;;;0.20;0.20;;;22.20;99.90;;;;;;5084851;28;20040;-69
2023/07/06 11:29:11;;;;;;;1.42;0.28;;;22.00;99.90;;;;;;5092639;28;20071;-62
2023/07/06 11:31:55;;;;;;;0.20;0.20;;;21.00;99.90;;;;;;5092625;28;20048;-63
2023/07/06 11:34:34;;;;;;;0.20;0.20;;;20.30;99.90;;;;;;5092549;28;20044;-62
2023/07/06 11:37:15;;;;;;;0.10;0.10;;;20.40;99.90;;;;;;5092584;28;20079;-65
2023/07/06 11:40:10;;;;;;;0.15;0.08;;;20.40;99.90;;;;;;5092806;28;20124;-63
2023/07/06 11:42:59;;;;;;;0.32;0.32;;;20.60;99.90;;;;;;5091383;28;20472;-63
2023/07/06 11:45:34;;;;;;;0.10;0.10;;;21.20;99.90;;;;;;5092565;28;20056;-63
2023/07/06 11:48:17;;;;;;;0.20;0.20;;;21.60;99.90;;;;;;5092465;28;20052;-63
2023/07/06 11:50:43;;;;;;;0.10;0.10;;;21.80;99.90;;;;;;5091567;28;20074;-63
2023/07/06 11:56:18;;;;;;;0.03;0.03;;;22.20;99.90;;;;;;5091410;28;20067;-63
2023/07/06 11:58:56;;;;;;;0.20;0.20;;;22.00;99.90;;;;;;5092535;28;20044;-65
2023/07/06 12:01:45;;;;;;;0.10;0.10;;;22.10;99.90;;;;;;5091819;28;20534;-63
2023/07/06 12:04:22;;;;;;;0.20;0.20;;;21.80;99.90;;;;;;5071674;28;20064;-63
2023/07/06 12:06:50;;;;;;;0.20;0.20;;;22.40;99.90;;;;;;5079963;28;20086;-64
2023/07/06 12:09:24;;;;;;;0.10;0.10;;;22.40;99.90;;;;;;5091994;28;20113;-63
2023/07/06 12:12:01;;;;;;;0.25;0.25;;;22.60;99.90;;;;;;5091248;28;20132;-63
2023/07/06 12:14:28;;;;;;;0.25;0.25;;;22.40;99.90;;;;;;5092147;28;20047;-66
2023/07/06 12:16:54;;;;;;;0.10;0.10;;;22.60;99.90;;;;;;5090642;28;20640;-64
2023/07/06 12:19:22;;;;;;;0.20;0.20;;;22.60;99.90;;;;;;5090372;28;20123;-62
2023/07/06 12:21:52;;;;;;;0.10;0.10;;;22.60;99.90;;;;;;5091739;28;20048;-62
2023/07/06 12:24:22;;;;;;;0.52;0.52;;;22.40;99.90;;;;;;5092893;28;20177;-64
2023/07/06 12:26:51;;;;;;;0.20;0.20;;;22.70;99.90;;;;;;5091625;28;20059;-62
2023/07/06 12:29:19;;;;;;;0.10;0.10;;;22.70;99.90;;;;;;5091723;28;20114;-62
2023/07/06 12:31:46;;;;;;;1.00;0.30;;;22.80;99.90;;;;;;5092127;28;20044;-64
2023/07/06 12:34:20;;;;;;;0.10;0.10;;;22.60;99.90;;;;;;5091109;28;20146;-62
2023/07/06 12:36:51;;;;;;;0.68;0.30;;;22.60;99.90;;;;;;5079150;28;20106;-65
2023/07/06 12:39:20;;;;;;;0.17;0.17;;;22.50;99.90;;;;;;5087318;28;20046;-69
2023/07/06 12:41:47;;;;;;;0.10;0.10;;;21.90;99.90;;;;;;5080016;28;20130;-64
2023/07/06 12:44:18;;;;;;;0.20;0.20;;;22.00;99.90;;;;;;5092166;28;20056;-62
2023/07/06 12:46:58;;;;;;;0.73;0.73;;;22.50;99.90;;;;;;5091843;28;20115;-62
2023/07/06 12:49:24;;;;;;;0.20;0.20;;;22.40;99.90;;;;;;5090693;28;20126;-62
2023/07/06 12:51:56;;;;;;;1.88;0.20;;;22.00;99.90;;;;;;5089358;28;20174;-63
2023/07/06 12:54:23;;;;;;;0.10;0.10;;;21.80;99.90;;;;;;5091394;28;20047;-62
2023/07/06 12:56:58;;;;;;;0.10;0.10;;;22.20;99.90;;;;;;5091239;28;20491;-64
2023/07/06 12:59:31;;;;;;;0.03;0.03;;;22.50;99.90;;;;;;5091926;28;20051;-65
2023/07/06 13:01:57;;;;;;;0.25;0.25;;;22.40;99.90;;;;;;5093674;28;20044;-62
2023/07/06 13:04:24;;;;;;;0.20;0.20;;;22.50;99.90;;;;;;5111670;28;20065;-65
2023/07/06 13:06:53;;;;;;;0.00;0.00;;;22.70;99.90;;;;;;5104647;28;20157;-63
2023/07/06 13:09:30;;;;;;;0.03;0.03;;;22.00;99.90;;;;;;5078159;28;20048;-64
2023/07/06 13:12:00;;;;;;;0.28;0.28;;;22.10;99.90;;;;;;5088633;28;20061;-62